createdAt,value
2022-10-22T00:01:42.771Z,7.77
2022-10-22T00:04:11.294Z,7.77
2022-10-22T00:06:39.728Z,7.78
2022-10-22T00:09:08.340Z,7.78
2022-10-22T00:11:37.223Z,7.78
2022-10-22T00:14:05.869Z,7.79
2022-10-22T00:16:34.494Z,7.81
2022-10-22T00:19:03.563Z,7.81
2022-10-22T00:21:32.051Z,7.81
2022-10-22T00:24:01.822Z,7.80
2022-10-22T00:26:30.586Z,7.80
2022-10-22T00:28:58.920Z,7.79
2022-10-22T00:31:27.345Z,7.80
2022-10-22T00:33:57.546Z,7.80
2022-10-22T00:36:25.938Z,7.81
2022-10-22T00:38:56.093Z,7.82
2022-10-22T00:41:26.534Z,7.83
2022-10-22T00:43:59.128Z,7.83
2022-10-22T00:46:27.626Z,7.84
2022-10-22T00:48:58.161Z,7.84
2022-10-22T00:51:28.953Z,7.84
2022-10-22T00:54:01.954Z,7.84
2022-10-22T00:56:31.611Z,7.85
2022-10-22T00:59:01.215Z,7.85
2022-10-22T01:01:32.596Z,7.85
2022-10-22T01:04:04.252Z,7.86
2022-10-22T01:06:34.270Z,7.86
2022-10-22T01:09:12.400Z,7.86
2022-10-22T01:11:51.552Z,7.86
2022-10-22T01:14:28.756Z,7.87
2022-10-22T01:17:03.825Z,7.88
2022-10-22T01:19:57.831Z,7.88
2022-10-22T01:22:30.714Z,7.88
2022-10-22T01:25:01.965Z,7.88
2022-10-22T01:27:42.898Z,7.89
2022-10-22T01:30:13.499Z,7.89
2022-10-22T01:32:45.581Z,7.90
2022-10-22T01:35:18.011Z,7.90
2022-10-22T01:37:48.393Z,7.91
2022-10-22T01:40:18.119Z,7.91
2022-10-22T01:42:57.557Z,7.93
2022-10-22T01:45:27.002Z,7.94
2022-10-22T01:48:00.950Z,7.95
2022-10-22T01:51:01.023Z,7.96
2022-10-22T01:53:35.450Z,7.98
2022-10-22T01:56:14.274Z,7.98
2022-10-22T01:58:48.682Z,8.00
2022-10-22T02:01:21.948Z,8.00
2022-10-22T02:03:59.508Z,8.02
2022-10-22T02:06:29.711Z,8.02
2022-10-22T02:08:59.520Z,8.03
2022-10-22T02:11:28.299Z,8.03
2022-10-22T02:14:00.031Z,8.04
2022-10-22T02:16:33.829Z,8.04
2022-10-22T02:19:06.717Z,8.03
2022-10-22T02:21:35.100Z,8.03
2022-10-22T02:24:04.168Z,8.03
2022-10-22T02:26:35.494Z,8.04
2022-10-22T02:29:10.102Z,8.05
2022-10-22T02:31:40.787Z,8.05
2022-10-22T02:34:13.989Z,8.05
2022-10-22T02:36:46.673Z,8.05
2022-10-22T02:39:18.474Z,8.04
2022-10-22T02:41:47.213Z,8.05
2022-10-22T02:44:15.622Z,8.06
2022-10-22T02:46:44.359Z,8.06
2022-10-22T02:49:12.725Z,8.07
2022-10-22T02:51:41.147Z,8.07
2022-10-22T02:54:09.983Z,8.07
2022-10-22T02:56:38.492Z,8.08
2022-10-22T02:59:06.758Z,8.09
2022-10-22T03:01:35.464Z,8.10
2022-10-22T03:04:04.187Z,8.10
2022-10-22T03:06:32.975Z,8.11
2022-10-22T03:09:01.773Z,8.11
2022-10-22T03:11:30.315Z,8.12
2022-10-22T03:13:58.836Z,8.13
2022-10-22T03:16:27.471Z,8.14
2022-10-22T03:18:55.875Z,8.16
2022-10-22T03:21:28.267Z,8.17
2022-10-22T03:23:57.440Z,8.18
2022-10-22T03:26:26.072Z,8.19
2022-10-22T03:28:55.038Z,8.19
2022-10-22T03:31:24.088Z,8.21
2022-10-22T03:33:55.480Z,8.22
2022-10-22T03:36:26.367Z,8.23
2022-10-22T03:38:55.705Z,8.24
2022-10-22T03:41:24.270Z,8.26
2022-10-22T03:43:54.121Z,8.26
2022-10-22T03:46:22.668Z,8.28
2022-10-22T03:48:51.439Z,8.29
2022-10-22T03:51:21.122Z,8.31
2022-10-22T03:53:49.911Z,8.33
2022-10-22T03:56:20.160Z,8.34
2022-10-22T03:58:49.415Z,8.36
2022-10-22T04:01:18.473Z,8.37
2022-10-22T04:03:46.835Z,8.38
2022-10-22T04:06:15.464Z,8.40
2022-10-22T04:08:45.763Z,8.41
2022-10-22T04:11:15.511Z,8.43
2022-10-22T04:13:44.582Z,8.44
2022-10-22T04:16:15.346Z,8.45
2022-10-22T04:18:45.176Z,8.46
2022-10-22T04:21:16.866Z,8.48
2022-10-22T04:23:47.388Z,8.49
2022-10-22T04:26:18.510Z,8.51
2022-10-22T04:28:51.858Z,8.52
2022-10-22T04:31:22.980Z,8.54
2022-10-22T04:33:55.376Z,8.56
2022-10-22T04:36:25.162Z,8.58
2022-10-22T04:38:55.504Z,8.59
2022-10-22T04:41:30.425Z,8.61
2022-10-22T04:44:00.030Z,8.63
2022-10-22T04:46:31.616Z,8.64
2022-10-22T04:49:00.608Z,8.67
2022-10-22T04:51:29.302Z,8.68
2022-10-22T04:53:58.086Z,8.70
2022-10-22T04:56:28.723Z,8.72
2022-10-22T04:59:03.006Z,8.74
2022-10-22T05:01:36.880Z,8.75
2022-10-22T05:04:10.094Z,8.75
2022-10-22T05:06:38.471Z,8.77
2022-10-22T05:09:10.356Z,8.79
2022-10-22T05:11:47.980Z,8.80
2022-10-22T05:14:18.468Z,8.81
2022-10-22T05:16:47.451Z,8.82
2022-10-22T05:19:20.424Z,8.84
2022-10-22T05:21:49.856Z,8.85
2022-10-22T05:24:20.798Z,8.86
2022-10-22T05:26:50.710Z,8.87
2022-10-22T05:29:19.548Z,8.88
2022-10-22T05:31:48.192Z,8.89
2022-10-22T05:34:17.179Z,8.89
2022-10-22T05:36:47.065Z,8.91
2022-10-22T05:39:15.914Z,8.91
2022-10-22T05:41:45.115Z,8.93
2022-10-22T05:44:13.686Z,8.94
2022-10-22T05:46:43.084Z,8.96
2022-10-22T05:49:14.832Z,8.97
2022-10-22T05:51:43.563Z,8.98
2022-10-22T05:54:18.222Z,8.99
2022-10-22T05:56:46.815Z,8.99
2022-10-22T05:59:15.199Z,9.00
2022-10-22T06:01:44.272Z,9.00
2022-10-22T06:04:15.751Z,9.01
2022-10-22T06:06:45.913Z,9.03
2022-10-22T06:09:17.302Z,9.05
2022-10-22T06:11:52.842Z,9.07
2022-10-22T06:14:21.770Z,9.09
2022-10-22T06:16:52.509Z,9.12
2022-10-22T06:19:22.803Z,9.13
2022-10-22T06:21:51.529Z,9.14
2022-10-22T06:24:20.092Z,9.14
2022-10-22T06:26:50.917Z,9.15
2022-10-22T06:29:19.442Z,9.16
2022-10-22T06:31:48.121Z,9.17
2022-10-22T06:34:18.372Z,9.18
2022-10-22T06:36:47.480Z,9.19
2022-10-22T06:39:17.378Z,9.20
2022-10-22T06:41:49.100Z,9.22
2022-10-22T06:44:18.455Z,9.23
2022-10-22T06:46:48.814Z,9.25
2022-10-22T06:49:17.297Z,9.27
2022-10-22T06:51:48.819Z,9.28
2022-10-22T06:54:17.221Z,9.31
2022-10-22T06:56:47.863Z,9.33
2022-10-22T06:59:16.274Z,9.36
2022-10-22T07:01:44.959Z,9.38
2022-10-22T07:04:13.490Z,9.41
2022-10-22T07:06:41.880Z,9.44
2022-10-22T07:09:11.694Z,9.45
2022-10-22T07:11:42.022Z,9.47
2022-10-22T07:14:11.265Z,9.49
2022-10-22T07:16:42.504Z,9.52
2022-10-22T07:19:11.237Z,9.55
2022-10-22T07:21:39.871Z,9.56
2022-10-22T07:24:09.214Z,9.57
2022-10-22T07:26:37.705Z,9.60
2022-10-22T07:29:06.491Z,9.62
2022-10-22T07:31:35.351Z,9.63
2022-10-22T07:34:03.782Z,9.66
2022-10-22T07:36:32.410Z,9.68
2022-10-22T07:39:01.339Z,9.71
2022-10-22T07:41:31.056Z,9.73
2022-10-22T07:44:00.322Z,9.77
2022-10-22T07:46:29.099Z,9.80
2022-10-22T07:48:57.715Z,9.82
2022-10-22T07:51:26.651Z,9.83
2022-10-22T07:53:55.154Z,9.85
2022-10-22T07:56:24.082Z,9.89
2022-10-22T07:58:52.939Z,9.92
2022-10-22T08:01:21.642Z,9.93
2022-10-22T08:03:50.511Z,9.95
2022-10-22T08:06:21.341Z,9.98
2022-10-22T08:08:49.754Z,10.01
2022-10-22T08:11:18.261Z,10.04
2022-10-22T08:13:46.803Z,10.05
2022-10-22T08:16:16.112Z,10.07
2022-10-22T08:18:44.773Z,10.09
2022-10-22T08:21:13.247Z,10.12
2022-10-22T08:23:41.784Z,10.16
2022-10-22T08:26:10.557Z,10.18
2022-10-22T08:28:39.402Z,10.21
2022-10-22T08:31:10.705Z,10.23
2022-10-22T08:33:40.751Z,10.26
2022-10-22T08:36:10.799Z,10.30
2022-10-22T08:38:40.441Z,10.32
2022-10-22T08:41:32.915Z,10.33
2022-10-22T08:44:32.836Z,10.35
2022-10-22T08:47:12.893Z,10.37
2022-10-22T08:49:42.716Z,10.39
2022-10-22T08:52:14.249Z,10.41
2022-10-22T08:54:51.868Z,10.44
2022-10-22T08:57:36.886Z,10.48
2022-10-22T09:00:10.849Z,10.53
2022-10-22T09:02:48.271Z,10.56
2022-10-22T09:05:33.919Z,10.61
2022-10-22T09:08:03.017Z,10.65
2022-10-22T09:10:35.691Z,10.69
2022-10-22T09:13:04.548Z,10.71
2022-10-22T09:15:34.815Z,10.75
2022-10-22T09:18:20.601Z,10.77
2022-10-22T09:20:53.180Z,10.80
2022-10-22T09:23:28.578Z,10.83
2022-10-22T09:25:58.363Z,10.86
2022-10-22T09:28:29.501Z,10.88
2022-10-22T09:33:33.225Z,10.94
2022-10-22T09:36:05.378Z,10.97
2022-10-22T09:38:40.862Z,11.01
2022-10-22T09:41:09.902Z,11.02
2022-10-22T09:43:39.742Z,11.05
2022-10-22T09:46:14.258Z,11.07
2022-10-22T09:48:47.946Z,11.07
2022-10-22T09:51:20.360Z,11.07
2022-10-22T09:53:56.618Z,11.09
2022-10-22T09:56:27.380Z,11.12
2022-10-22T09:58:57.510Z,11.13
2022-10-22T10:01:28.651Z,11.13
2022-10-22T10:04:06.962Z,11.13
2022-10-22T10:06:40.936Z,11.14
2022-10-22T10:09:17.072Z,11.17
2022-10-22T10:11:51.107Z,11.22
2022-10-22T10:14:20.697Z,11.22
2022-10-22T10:17:01.713Z,11.20
2022-10-22T10:19:48.839Z,11.20
2022-10-22T10:22:27.368Z,11.21
2022-10-22T10:25:10.390Z,11.24
2022-10-22T10:27:40.992Z,11.23
2022-10-22T10:30:14.582Z,11.23
2022-10-22T10:33:02.760Z,11.24
2022-10-22T10:35:38.910Z,11.25
2022-10-22T10:38:24.665Z,11.26
2022-10-22T10:41:00.477Z,11.27
2022-10-22T10:43:32.956Z,11.30
2022-10-22T10:46:07.683Z,11.32
2022-10-22T10:48:48.572Z,11.33
2022-10-22T10:51:30.006Z,11.35
2022-10-22T10:54:22.028Z,11.37
2022-10-22T10:56:53.625Z,11.38
2022-10-22T10:59:31.370Z,11.39
2022-10-22T11:02:32.907Z,11.39
2022-10-22T11:05:16.018Z,11.40
2022-10-22T11:07:51.035Z,11.42
2022-10-22T11:10:28.887Z,11.42
2022-10-22T11:13:02.037Z,11.42
2022-10-22T11:15:33.099Z,11.43
2022-10-22T11:18:08.472Z,11.44
2022-10-22T11:20:44.585Z,11.43
2022-10-22T11:23:19.959Z,11.44
2022-10-22T11:25:51.348Z,11.45
2022-10-22T11:28:25.709Z,11.46
2022-10-22T11:31:00.164Z,11.46
2022-10-22T11:33:34.079Z,11.48
2022-10-22T11:36:02.368Z,11.48
2022-10-22T11:38:34.954Z,11.49
2022-10-22T11:41:07.263Z,11.51
2022-10-22T11:43:53.528Z,11.52
2022-10-22T11:46:40.332Z,11.52
2022-10-22T11:49:22.632Z,11.53
2022-10-22T11:51:51.974Z,11.54
2022-10-22T11:54:42.090Z,11.54
2022-10-22T11:57:27.300Z,11.56
2022-10-22T11:59:59.502Z,11.58
2022-10-22T12:02:44.822Z,11.60
2022-10-22T12:05:34.893Z,11.62
2022-10-22T12:08:22.370Z,11.63
2022-10-22T12:10:58.307Z,11.64
2022-10-22T12:13:29.053Z,11.67
2022-10-22T12:16:01.353Z,11.69
2022-10-22T12:18:34.583Z,11.71
2022-10-22T12:21:03.301Z,11.73
2022-10-22T12:23:34.433Z,11.76
2022-10-22T12:26:05.251Z,11.78
2022-10-22T12:28:40.284Z,11.82
2022-10-22T12:31:16.597Z,11.85
2022-10-22T12:33:45.709Z,11.88
2022-10-22T12:36:20.044Z,11.91
2022-10-22T12:38:48.633Z,11.93
2022-10-22T12:41:18.014Z,11.96
2022-10-22T12:43:47.396Z,12.00
2022-10-22T12:46:16.750Z,12.04
2022-10-22T12:48:46.390Z,12.08
2022-10-22T12:51:19.646Z,12.11
2022-10-22T12:53:50.316Z,12.15
2022-10-22T12:56:23.067Z,12.17
2022-10-22T12:58:58.908Z,12.19
2022-10-22T13:01:30.002Z,12.22
2022-10-22T13:04:23.164Z,12.24
2022-10-22T13:07:08.396Z,12.28
2022-10-22T13:09:40.889Z,12.32
2022-10-22T13:12:14.182Z,12.34
2022-10-22T13:14:43.307Z,12.35
2022-10-22T13:17:14.789Z,12.36
2022-10-22T13:19:46.403Z,12.37
2022-10-22T13:22:36.172Z,12.38
2022-10-22T13:25:35.067Z,12.40
2022-10-22T13:28:16.985Z,12.42
2022-10-22T13:30:55.710Z,12.42
2022-10-22T13:33:26.519Z,12.42
2022-10-22T13:35:59.629Z,12.42
2022-10-22T13:38:29.942Z,12.42
2022-10-22T13:40:58.993Z,12.43
2022-10-22T13:43:27.949Z,12.43
2022-10-22T13:45:59.524Z,12.41
2022-10-22T13:48:30.000Z,12.40
2022-10-22T13:51:00.676Z,12.39
2022-10-22T13:53:30.447Z,12.36
2022-10-22T13:56:00.000Z,12.35
2022-10-22T13:58:29.678Z,12.35
2022-10-22T14:01:02.277Z,12.34
2022-10-22T14:03:33.207Z,12.34
2022-10-22T14:06:01.958Z,12.33
2022-10-22T14:08:32.342Z,12.33
2022-10-22T14:11:03.255Z,12.32
2022-10-22T14:13:31.862Z,12.32
2022-10-22T14:16:03.239Z,12.30
2022-10-22T14:18:35.296Z,12.29
2022-10-22T14:21:18.006Z,12.28
2022-10-22T14:23:51.885Z,12.26
2022-10-22T14:26:25.734Z,12.26
2022-10-22T14:29:15.458Z,12.26
2022-10-22T14:31:44.922Z,12.25
2022-10-22T14:34:16.391Z,12.25
2022-10-22T14:36:45.745Z,12.26
2022-10-22T14:39:14.600Z,12.27
2022-10-22T14:41:43.996Z,12.26
2022-10-22T14:44:15.013Z,12.25
2022-10-22T14:46:46.276Z,12.24
2022-10-22T14:49:14.858Z,12.24
2022-10-22T14:51:43.195Z,12.24
2022-10-22T14:54:12.185Z,12.24
2022-10-22T14:56:40.687Z,12.24
2022-10-22T14:59:11.032Z,12.23
2022-10-22T15:01:40.118Z,12.23
2022-10-22T15:04:08.915Z,12.21
2022-10-22T15:06:38.363Z,12.20
2022-10-22T15:09:06.968Z,12.20
2022-10-22T15:11:35.636Z,12.20
2022-10-22T15:14:04.575Z,12.20
2022-10-22T15:16:33.858Z,12.19
2022-10-22T15:19:02.694Z,12.18
2022-10-22T15:21:31.238Z,12.17
2022-10-22T15:24:02.254Z,12.17
2022-10-22T15:26:31.421Z,12.16
2022-10-22T15:29:03.597Z,12.14
2022-10-22T15:31:49.485Z,12.14
2022-10-22T15:34:22.738Z,12.12
2022-10-22T15:36:53.915Z,12.11
2022-10-22T15:39:22.254Z,12.10
2022-10-22T15:41:52.692Z,12.09
2022-10-22T15:44:23.415Z,12.08
2022-10-22T15:46:55.966Z,12.07
2022-10-22T15:49:25.946Z,12.06
2022-10-22T15:51:55.532Z,12.06
2022-10-22T15:54:27.528Z,12.05
2022-10-22T15:57:01.401Z,12.05
2022-10-22T15:59:36.382Z,12.05
2022-10-22T16:02:06.698Z,12.05
2022-10-22T16:04:35.753Z,12.06
2022-10-22T16:07:04.216Z,12.07
2022-10-22T16:09:32.619Z,12.07
2022-10-22T16:12:02.215Z,12.06
2022-10-22T16:14:30.907Z,12.06
2022-10-22T16:17:01.178Z,12.07
2022-10-22T16:19:30.170Z,12.08
2022-10-22T16:22:01.929Z,12.09
2022-10-22T16:24:31.011Z,12.09
2022-10-22T16:26:59.660Z,12.08
2022-10-22T16:29:28.116Z,12.08
2022-10-22T16:31:57.954Z,12.07
2022-10-22T16:34:31.178Z,12.05
2022-10-22T16:37:01.762Z,12.06
2022-10-22T16:39:31.093Z,12.06
2022-10-22T16:41:59.617Z,12.04
2022-10-22T16:44:28.333Z,12.03
2022-10-22T16:46:58.920Z,12.02
2022-10-22T16:49:27.626Z,12.02
2022-10-22T16:51:56.080Z,12.00
2022-10-22T16:54:24.485Z,11.99
2022-10-22T16:56:52.883Z,11.99
2022-10-22T16:59:21.997Z,11.98
2022-10-22T17:01:54.371Z,11.98
2022-10-22T17:04:23.938Z,11.96
2022-10-22T17:06:52.258Z,11.96
2022-10-22T17:09:21.255Z,11.94
2022-10-22T17:11:50.328Z,11.94
2022-10-22T17:14:18.740Z,11.94
2022-10-22T17:16:48.486Z,11.93
2022-10-22T17:19:17.027Z,11.93
2022-10-22T17:21:45.639Z,11.93
2022-10-22T17:24:14.311Z,11.93
2022-10-22T17:26:44.367Z,11.94
2022-10-22T17:29:13.416Z,11.95
2022-10-22T17:31:41.826Z,11.95
2022-10-22T17:34:15.505Z,11.96
2022-10-22T17:36:49.307Z,11.97
2022-10-22T17:39:19.520Z,11.99
2022-10-22T17:41:48.452Z,12.01
2022-10-22T17:44:16.898Z,12.01
2022-10-22T17:46:45.694Z,12.02
2022-10-22T17:49:17.132Z,12.02
2022-10-22T17:51:45.851Z,12.02
2022-10-22T17:54:14.520Z,12.03
2022-10-22T17:56:42.957Z,12.04
2022-10-22T17:59:14.523Z,12.04
2022-10-22T18:01:46.459Z,12.05
2022-10-22T18:04:16.645Z,12.05
2022-10-22T18:06:46.402Z,12.05
2022-10-22T18:09:18.545Z,12.06
2022-10-22T18:11:47.730Z,12.05
2022-10-22T18:14:17.839Z,12.05
2022-10-22T18:16:46.437Z,12.06
2022-10-22T18:19:17.414Z,12.06
2022-10-22T18:21:46.533Z,12.07
2022-10-22T18:24:18.287Z,12.08
2022-10-22T18:26:47.204Z,12.09
2022-10-22T18:29:17.911Z,12.09
2022-10-22T18:31:51.246Z,12.10
2022-10-22T18:34:23.210Z,12.10
2022-10-22T18:36:54.044Z,12.10
2022-10-22T18:39:24.406Z,12.10
2022-10-22T18:41:53.049Z,12.11
2022-10-22T18:44:22.479Z,12.11
2022-10-22T18:46:51.481Z,12.12
2022-10-22T18:49:20.191Z,12.12
2022-10-22T18:51:52.195Z,12.12
2022-10-22T18:54:23.638Z,12.12
2022-10-22T18:56:53.165Z,12.12
2022-10-22T18:59:23.023Z,12.12
2022-10-22T19:01:52.347Z,12.12
2022-10-22T19:04:22.267Z,12.13
2022-10-22T19:06:50.954Z,12.13
2022-10-22T19:09:19.357Z,12.13
2022-10-22T19:11:47.862Z,12.14
2022-10-22T19:14:18.788Z,12.14
2022-10-22T19:16:47.749Z,12.15
2022-10-22T19:19:19.413Z,12.15
2022-10-22T19:21:48.811Z,12.16
2022-10-22T19:24:19.168Z,12.16
2022-10-22T19:26:49.859Z,12.16
2022-10-22T19:29:19.874Z,12.16
2022-10-22T19:31:50.673Z,12.17
2022-10-22T19:34:20.273Z,12.17
2022-10-22T19:36:51.060Z,12.17
2022-10-22T19:39:19.664Z,12.17
2022-10-22T19:41:48.188Z,12.17
2022-10-22T19:44:16.844Z,12.17
2022-10-22T19:46:45.450Z,12.17
2022-10-22T19:49:17.600Z,12.17
2022-10-22T19:51:49.428Z,12.17
2022-10-22T19:54:19.925Z,12.15
2022-10-22T19:56:49.158Z,12.16
2022-10-22T19:59:22.291Z,12.16
2022-10-22T20:01:51.350Z,12.17
2022-10-22T20:04:24.614Z,12.17
2022-10-22T20:06:57.903Z,12.18
2022-10-22T20:09:26.819Z,12.18
2022-10-22T20:11:55.443Z,12.18
2022-10-22T20:14:29.570Z,12.18
2022-10-22T20:16:58.418Z,12.19
2022-10-22T20:19:29.374Z,12.19
2022-10-22T20:24:31.888Z,12.20
2022-10-22T20:27:01.014Z,12.20
2022-10-22T20:29:30.551Z,12.21
2022-10-22T20:32:03.336Z,12.22
2022-10-22T20:34:35.111Z,12.23
2022-10-22T20:37:05.245Z,12.24
2022-10-22T20:39:33.679Z,12.25
2022-10-22T20:42:02.181Z,12.26
2022-10-22T20:44:30.877Z,12.26
2022-10-22T20:46:59.254Z,12.27
2022-10-22T20:49:27.728Z,12.28
2022-10-22T20:51:59.276Z,12.27
2022-10-22T20:54:27.712Z,12.28
2022-10-22T20:56:56.293Z,12.28
2022-10-22T20:59:32.011Z,12.28
2022-10-22T21:02:00.717Z,12.27
2022-10-22T21:04:29.880Z,12.28
2022-10-22T21:06:58.389Z,12.27
2022-10-22T21:09:27.462Z,12.27
2022-10-22T21:11:57.536Z,12.27
2022-10-22T21:14:25.902Z,12.28
2022-10-22T21:16:54.441Z,12.27
2022-10-22T21:19:23.621Z,12.28
2022-10-22T21:21:52.534Z,12.28
2022-10-22T21:24:24.280Z,12.28
2022-10-22T21:26:53.615Z,12.29
2022-10-22T21:29:22.308Z,12.28
2022-10-22T21:31:51.897Z,12.29
2022-10-22T21:34:20.778Z,12.29
2022-10-22T21:36:49.219Z,12.29
2022-10-22T21:39:17.644Z,12.28
2022-10-22T21:41:46.181Z,12.28
2022-10-22T21:44:14.673Z,12.28
2022-10-22T21:46:43.155Z,12.28
2022-10-22T21:49:11.623Z,12.29
2022-10-22T21:51:40.120Z,12.29
2022-10-22T21:54:08.526Z,12.29
2022-10-22T21:56:37.147Z,12.30
2022-10-22T21:59:07.567Z,12.31
2022-10-22T22:01:36.114Z,12.31
2022-10-22T22:04:04.736Z,12.31
2022-10-22T22:06:34.510Z,12.31
2022-10-22T22:09:04.366Z,12.32
2022-10-22T22:11:33.655Z,12.33
2022-10-22T22:14:02.039Z,12.34
2022-10-22T22:16:31.832Z,12.33
2022-10-22T22:21:34.269Z,12.34
2022-10-22T22:24:04.001Z,12.35
2022-10-22T22:26:33.481Z,12.35
2022-10-22T22:29:02.235Z,12.36
2022-10-22T22:31:32.165Z,12.36
2022-10-22T22:34:02.104Z,12.36
2022-10-22T22:36:34.287Z,12.36
2022-10-22T22:39:04.036Z,12.36
2022-10-22T22:41:32.959Z,12.37
2022-10-22T22:44:01.643Z,12.38
2022-10-22T22:46:30.279Z,12.37
2022-10-22T22:48:58.825Z,12.38
2022-10-22T22:51:27.413Z,12.38
2022-10-22T22:53:57.629Z,12.38
2022-10-22T22:56:28.689Z,12.39
2022-10-22T22:58:57.700Z,12.40
2022-10-22T23:01:28.117Z,12.40
2022-10-22T23:03:58.010Z,12.40
2022-10-22T23:06:28.097Z,12.41
2022-10-22T23:08:57.544Z,12.41
2022-10-22T23:11:28.510Z,12.42
2022-10-22T23:13:59.678Z,12.43
2022-10-22T23:16:29.792Z,12.43
2022-10-22T23:18:58.579Z,12.43
2022-10-22T23:21:30.244Z,12.43
2022-10-22T23:24:01.383Z,12.43
2022-10-22T23:26:31.562Z,12.43
2022-10-22T23:29:02.071Z,12.43
2022-10-22T23:31:30.899Z,12.43
2022-10-22T23:33:59.301Z,12.43
2022-10-22T23:36:28.473Z,12.43
2022-10-22T23:38:59.037Z,12.41
2022-10-22T23:41:27.538Z,12.41
2022-10-22T23:43:55.982Z,12.40
2022-10-22T23:46:24.691Z,12.40
2022-10-22T23:48:53.163Z,12.39
2022-10-22T23:51:22.197Z,12.39
2022-10-22T23:53:56.513Z,12.38
2022-10-22T23:56:25.252Z,12.38
2022-10-22T23:58:53.929Z,12.38
